Latest Weather Observations for Penrith

IDN60901

Issued at 12:01 am EDT Wednesday 25 January 2017 (issued every 10 minutes, with the page automatically refreshed every 10 minutes)

About weather observations | Map of Sydney area stations | Latest observations for Sydney area | Other Formats
Station Details ID: 067113 Name: PENRITH LAKES AWS Lat: -33.72 Lon: 150.68 Height: 24.7 m
Data from the previous 72 hours. | See also: Recent months at Penrith
Date/Time
EDT
Temp
°C
App
Temp
°C
Dew
Point
°C
Rel
Hum
%
Delta-T
°C
Wind Press
QNH
hPa
Press
MSL
hPa
Rain since
9am
mm
Dir  Spd
km/h
Gust
km/h
Spd
kts
Gust
kts
24/11:30pm 19.1 19.7 17.6 91 0.9 S 11 17 6 9 - - 0.0
24/11:00pm 19.7 19.5 17.5 87 1.3 S 15 24 8 13 - - 0.0
24/10:30pm 20.2 19.0 17.4 84 1.7 S 20 26 11 14 - - 0.0
24/10:00pm 21.5 21.5 18.1 81 2.1 S 15 24 8 13 - - 0.0
24/09:30pm 21.4 22.3 18.4 83 1.9 S 11 19 6 10 - - 0.0
24/09:00pm 21.6 21.7 18.4 82 2.0 SSE 15 24 8 13 - - 0.0
24/08:30pm 21.8 23.2 18.6 82 2.0 S 9 15 5 8 - - 0.0
24/08:00pm 21.8 21.8 19.0 84 1.8 SSE 17 22 9 12 - - 0.0
24/07:30pm 22.4 22.4 19.0 81 2.2 SSE 17 28 9 15 - - 0.0
24/07:00pm 22.6 22.3 19.6 83 1.9 SSE 20 35 11 19 - - 0.0
24/06:30pm 23.4 23.7 20.5 84 1.9 S 19 28 10 15 - - 0.0
24/06:00pm 24.7 24.1 20.4 77 2.8 SSE 24 39 13 21 - - 0.0
24/05:35pm 27.1 24.7 20.0 65 4.6 SE 32 54 17 29 - - 0.0
24/05:30pm 29.0 27.8 19.3 55 6.3 SSE 24 54 13 29 - - 0.0
24/05:29pm 30.0 29.6 19.4 53 6.9 S 20 54 11 29 - - 0.0
24/05:00pm 34.9 38.1 20.5 43 9.7 W 4 7 2 4 - - 0.0
24/04:30pm 34.9 37.3 20.1 42 9.9 NW 7 11 4 6 - - 0.0
24/04:00pm 34.4 37.2 19.6 41 9.8 NNW 4 6 2 3 - - 0.0
24/03:30pm 34.2 36.7 19.8 42 9.6 NW 6 7 3 4 - - 0.0
24/03:00pm 34.3 35.9 19.9 42 9.6 SW 11 17 6 9 - - 0.0
24/02:30pm 34.5 35.6 18.9 39 10.2 SW 11 22 6 12 - - 0.0
24/02:00pm 34.8 35.7 19.2 39 10.3 WSW 13 20 7 11 - - 0.0
24/01:30pm 34.4 36.0 19.2 40 10.0 SW 9 17 5 9 - - 0.0
24/01:00pm 34.8 36.4 19.2 39 10.3 W 9 19 5 10 - - 0.0
24/12:30pm 35.3 35.8 18.4 37 11.0 W 13 22 7 12 - - 0.0
24/12:00pm 34.5 32.4 18.1 37 10.7 NW 26 43 14 23 - - 0.0
24/11:30am 35.2 35.1 17.9 36 11.2 W 15 30 8 16 - - 0.0
24/11:00am 34.4 34.0 18.0 37 10.6 WSW 17 24 9 13 - - 0.0
24/10:30am 35.0 32.7 17.7 36 11.2 NW 26 46 14 25 - - 0.0
24/10:26am 35.1 33.6 17.8 36 11.2 NW 22 46 12 25 - - 0.0
24/10:00am 35.5 35.9 17.2 33 11.8 WNW 11 20 6 11 - - 0.0
24/09:30am 34.8 34.9 16.6 33 11.6 WNW 11 22 6 12 - - 0.0
24/09:00am 34.4 34.4 16.3 34 11.5 NW 11 20 6 11 - - 0.2
24/08:30am 33.7 35.1 17.4 37 10.5 N 6 11 3 6 - - 0.2
24/08:00am 31.4 33.9 19.1 48 8.0 NNE 4 9 2 5 - - 0.2
24/07:30am 28.1 32.0 20.4 63 5.1 CALM 0 0 0 0 - - 0.2
24/07:00am 27.9 31.2 19.9 61 5.2 W 2 6 1 3 - - 0.2
24/06:30am 27.2 30.7 20.3 66 4.5 N 2 4 1 2 - - 0.2
24/06:00am 27.6 31.1 20.4 65 4.7 E 2 7 1 4 - - 0.2
24/05:30am 27.1 30.3 20.4 66 4.4 NE 4 6 2 3 - - 0.2
24/05:00am 26.9 29.7 20.5 68 4.2 NW 6 9 3 5 - - 0.2
24/04:30am 26.9 29.0 19.3 63 4.9 NNE 7 9 4 5 - - 0.2
24/04:00am 26.1 29.9 20.9 73 3.4 NNE 2 7 1 4 - - 0.2
24/03:30am 25.8 28.6 20.8 74 3.3 NE 7 7 4 4 - - 0.2
24/03:00am 25.5 29.2 19.9 71 3.6 CALM 0 0 0 0 - - 0.2
24/02:30am 25.7 29.4 20.0 71 3.7 CALM 0 0 0 0 - - 0.2
24/02:00am 25.6 28.5 19.9 70 3.7 SW 4 6 2 3 - - 0.2
24/01:30am 25.6 28.3 19.5 69 3.9 SW 4 6 2 3 - - 0.2
24/01:00am 26.6 30.1 19.5 65 4.6 CALM 0 0 0 0 - - 0.2
24/12:30am 26.6 28.8 19.2 64 4.8 SW 6 7 3 4 - - 0.2
24/12:00am 27.6 30.1 19.1 59 5.5 SSW 4 6 2 3 - - 0.2
 
Date/Time
EDT
Temp
°C
App
Temp
°C
Dew
Point
°C
Rel
Hum
%
Delta-T
°C
Wind Press
QNH
hPa
Press
MSL
hPa
Rain since
9am
mm
Dir  Spd
km/h
Gust
km/h
Spd
kts
Gust
kts
23/11:30pm 27.7 30.2 19.8 62 5.2 SW 6 6 3 3 - - 0.2
23/11:00pm 28.7 32.1 19.3 56 6.1 CALM 0 0 0 0 - - 0.2
23/10:30pm 29.4 31.3 18.5 52 7.0 ENE 6 9 3 5 - - 0.2
23/10:00pm 30.3 31.8 18.1 48 7.8 ENE 7 9 4 5 - - 0.2
23/09:30pm 31.1 32.1 17.8 45 8.5 NNE 9 13 5 7 - - 0.2
23/09:00pm 32.2 32.0 17.7 42 9.3 N 15 20 8 11 - - 0.2
23/08:30pm 32.8 32.7 17.8 40 9.7 N 15 20 8 11 - - 0.2
23/08:00pm 33.9 33.1 17.2 37 10.7 NNE 17 22 9 12 - - 0.2
23/07:30pm 34.9 33.8 17.2 35 11.4 NE 19 32 10 17 - - 0.2
23/07:00pm 35.8 34.8 17.5 34 11.8 NE 19 28 10 15 - - 0.2
23/06:30pm 36.3 34.5 17.9 33 12.0 ENE 24 32 13 17 - - 0.2
23/06:00pm 37.2 35.9 18.2 32 12.5 NE 22 32 12 17 - - 0.2
23/05:30pm 37.0 34.9 18.1 33 12.4 NE 26 35 14 19 - - 0.2
23/05:00pm 38.1 36.7 18.0 30 13.2 NE 22 32 12 17 - - 0.2
23/04:30pm 38.8 37.6 17.0 27 14.1 NNE 19 28 10 15 - - 0.2
23/04:00pm 38.4 37.6 17.2 28 13.8 N 17 32 9 17 - - 0.2
23/03:30pm 38.0 38.3 17.9 30 13.2 NNE 13 24 7 13 - - 0.2
23/03:00pm 37.3 37.2 17.8 31 12.7 NE 15 32 8 17 - - 0.2
23/02:30pm 37.5 38.3 19.0 34 12.3 NE 13 22 7 12 - - 0.2
23/02:00pm 35.9 36.8 18.5 36 11.4 NE 11 22 6 12 - - 0.2
23/01:30pm 34.4 35.7 18.4 38 10.4 NE 9 20 5 11 - - 0.2
23/01:00pm 32.5 34.1 18.3 43 9.2 NNW 7 17 4 9 - - 0.2
23/12:30pm 31.6 32.4 18.2 44 8.6 NNW 11 17 6 9 - - 0.0
23/12:00pm 31.5 33.0 18.8 46 8.3 N 9 19 5 10 - - 0.0
23/11:30am 29.6 30.6 17.8 49 7.5 N 9 19 5 10 - - 0.0
23/11:00am 28.0 29.7 18.1 55 6.3 NW 6 11 3 6 - - 0.0
23/10:30am 27.3 29.2 18.6 59 5.6 N 6 9 3 5 - - 0.0
23/10:00am 26.0 27.8 18.2 62 4.9 NW 6 20 3 11 - - 0.0
23/09:30am 24.8 26.9 18.0 66 4.3 NW 4 7 2 4 - - 0.0
23/09:00am 23.3 24.7 17.3 69 3.7 N 6 9 3 5 - - 0.0
23/08:30am 22.5 23.9 17.4 73 3.2 NNE 6 9 3 5 - - 0.0
23/08:00am 21.7 23.5 17.5 77 2.6 S 4 6 2 3 - - 0.0
23/07:30am 20.3 22.5 17.5 84 1.7 SSW 2 4 1 2 - - 0.0
23/07:00am 19.4 22.3 18.1 92 0.8 CALM 0 6 0 3 - - 0.0
23/06:30am 18.6 21.0 17.1 91 0.9 CALM 0 0 0 0 - - 0.0
23/06:00am 18.5 20.8 16.8 90 1.0 CALM 0 0 0 0 - - 0.0
23/05:30am 18.7 21.2 17.2 91 0.9 CALM 0 0 0 0 - - 0.0
23/05:00am 18.6 20.6 16.9 90 1.0 SW 2 4 1 2 - - 0.0
23/04:30am 18.9 20.9 17.0 89 1.1 SSW 2 4 1 2 - - 0.0
23/04:00am 19.0 21.0 17.0 88 1.2 SW 2 4 1 2 - - 0.0
23/03:30am 19.3 21.4 17.1 87 1.3 SW 2 4 1 2 - - 0.0
23/03:00am 19.6 21.3 17.2 86 1.5 SW 4 6 2 3 - - 0.0
23/02:30am 20.1 22.2 17.3 84 1.7 WSW 2 4 1 2 - - 0.0
23/02:00am 20.5 23.0 17.3 82 2.0 CALM 0 0 0 0 - - 0.0
23/01:30am 20.7 22.9 17.5 82 2.0 SW 2 4 1 2 - - 0.0
23/01:00am 20.9 23.1 17.5 81 2.1 WSW 2 6 1 3 - - 0.0
23/12:30am 21.2 23.5 16.8 76 2.7 CALM 0 0 0 0 - - 0.0
23/12:00am 21.9 24.3 17.1 74 2.9 CALM 0 0 0 0 - - 0.0
 
Date/Time
EDT
Temp
°C
App
Temp
°C
Dew
Point
°C
Rel
Hum
%
Delta-T
°C
Wind Press
QNH
hPa
Press
MSL
hPa
Rain since
9am
mm
Dir  Spd
km/h
Gust
km/h
Spd
kts
Gust
kts
22/11:30pm 22.1 24.1 17.0 73 3.1 N 2 4 1 2 - - 0.0
22/11:00pm 22.2 23.8 16.9 72 3.2 NNE 4 6 2 3 - - 0.0
22/10:30pm 22.6 23.7 16.6 69 3.7 NE 6 9 3 5 - - 0.0
22/10:00pm 23.0 23.4 16.3 66 4.1 NE 9 15 5 8 - - 0.0
22/09:30pm 23.4 24.1 16.2 64 4.4 NE 7 9 4 5 - - 0.0
22/09:00pm 23.9 24.2 15.9 61 4.9 ENE 9 15 5 8 - - 0.0
22/08:30pm 24.4 23.9 15.9 59 5.2 ENE 13 20 7 11 - - 0.0
22/08:00pm 24.9 24.7 15.8 57 5.5 E 11 17 6 9 - - 0.0
22/07:30pm 25.9 24.1 15.6 53 6.3 E 19 24 10 13 - - 0.0
22/07:00pm 27.2 25.6 15.9 50 6.9 E 19 28 10 15 - - 0.0
22/06:30pm 28.1 26.3 16.1 48 7.4 ENE 20 28 11 15 - - 0.0
22/06:00pm 29.4 27.9 16.2 44 8.2 ENE 19 24 10 13 - - 0.0
22/05:30pm 30.0 29.7 16.4 44 8.5 ENE 13 26 7 14 - - 0.0
22/05:00pm 30.2 30.3 16.6 44 8.5 ENE 11 22 6 12 - - 0.0
22/04:30pm 30.1 29.4 15.4 41 9.1 ENE 13 28 7 15 - - 0.0
22/04:00pm 30.9 30.7 15.7 39 9.4 ENE 11 20 6 11 - - 0.0
22/03:30pm 31.2 32.1 16.0 40 9.5 SSE 6 19 3 10 - - 0.0
22/03:00pm 29.4 29.9 15.5 43 8.6 N 7 20 4 11 - - 0.0
22/02:30pm 28.7 29.3 15.2 43 8.2 ENE 6 13 3 7 - - 0.0
22/02:00pm 28.5 28.9 15.4 45 8.0 NNW 7 15 4 8 - - 0.0
22/01:30pm 27.2 27.1 14.9 47 7.4 NE 9 24 5 13 - - 0.0
22/01:00pm 26.6 26.9 15.0 49 7.0 NNW 7 15 4 8 - - 0.0
22/12:30pm 26.4 26.2 14.8 49 7.0 N 9 20 5 11 - - 0.0
22/12:00pm 25.6 25.2 15.3 53 6.2 NNW 11 17 6 9 - - 0.0
22/11:30am 25.6 24.9 14.4 50 6.7 NE 11 19 6 10 - - 0.0
22/11:00am 25.4 24.4 14.5 51 6.5 NNE 13 22 7 12 - - 0.0
22/10:30am 25.1 25.5 15.4 55 5.9 NNW 7 15 4 8 - - 0.0
22/10:00am 22.9 23.0 13.9 57 5.3 NNW 6 7 3 4 - - 0.0
22/09:30am 23.0 23.2 14.3 58 5.1 NW 6 9 3 5 - - 0.0
22/09:00am 22.2 22.5 13.5 57 5.0 NNE 4 7 2 4 - - 0.0
22/08:30am 22.0 22.7 13.4 58 5.0 SE 2 6 1 3 - - 0.0
22/08:00am 21.2 21.7 14.1 64 4.1 SSW 4 6 2 3 - - 0.0
22/07:30am 20.0 21.2 15.8 77 2.5 W 4 7 2 4 - - 0.0
22/07:00am 18.9 19.7 15.8 82 1.8 W 6 7 3 4 - - 0.0
22/06:30am 18.3 19.0 15.6 84 1.6 W 6 9 3 5 - - 0.0
22/06:00am 18.6 19.1 15.5 82 1.8 W 7 9 4 5 - - 0.0
22/05:30am 19.2 19.9 15.5 79 2.2 W 6 9 3 5 - - 0.0
22/05:00am 19.4 19.9 15.1 76 2.5 W 6 7 3 4 - - 0.0
22/04:30am 19.6 19.9 14.4 72 3.0 WNW 6 7 3 4 - - 0.0
22/04:00am 19.4 19.6 14.2 72 3.0 SSE 6 9 3 5 - - 0.0
22/03:30am 19.8 20.0 14.2 70 3.2 SE 6 13 3 7 - - 0.0
22/03:00am 20.0 20.5 15.0 73 2.9 WSW 6 9 3 5 - - 0.0
22/02:30am 20.3 20.0 14.4 69 3.4 S 9 13 5 7 - - 0.0
22/02:00am 20.4 20.1 14.5 69 3.4 S 9 13 5 7 - - 0.0
22/01:30am 20.6 20.8 14.7 69 3.5 SSE 7 9 4 5 - - 0.0
22/01:00am 20.7 20.5 14.8 69 3.5 SSE 9 13 5 7 - - 0.0
22/12:30am 20.8 21.1 14.9 69 3.5 SSE 7 13 4 7 - - 0.0

Latest Capital City Observations: Canberra | Sydney | Melbourne | Brisbane | Adelaide | Perth | Hobart | Darwin

Other Formats:

Comma delimited format used in spreadsheet applications
http://www.bom.gov.au/fwo/IDN60901/IDN60901.94763.axf

JavaScript Object Notation format (JSON) in row-major order
http://www.bom.gov.au/fwo/IDN60901/IDN60901.94763.json